In Rescue
 
Open Full Screen Window  High Contrast Mode
Wind Gusting 00 knots
12
September 23, 2021 1:05 PM EDT
Weather Information
Wind Direction
  280 °
Wind Speed
  12 kt (14 mph)
Wind Gust
  00 kt (0 mph)
Altimeter
29.97 in
Visibility
10 SM
Temperature
17° C
63° F
Dewpoint
11° C
52° F
Humidity
68%
1hr Rain Fall
00.00 in.
24hr Rain Fall
00.22 in.
Sky Condition
Overcast @ 7,000 ft
Broken @ 5,000 ft
Scattered @ 3,000 ft
VFR

METAR KI69 231705Z AUTO 28012KT 10SM SCT030 BKN050 OVC070 17/11 A2997 RMK AO2 T01670106

FAA Disclaimer: The data displayed is for advisory purposes only and is not to be used for flight planning or operations.